sensor_id;sensor_type;location;lat;lon;timestamp;temperature;humidity
4910;DHT22;2470;49.868;8.660;2023-08-06T00:01:29;17.40;99.90
4910;DHT22;2470;49.868;8.660;2023-08-06T00:03:54;17.40;99.90
4910;DHT22;2470;49.868;8.660;2023-08-06T00:06:20;17.40;99.90
4910;DHT22;2470;49.868;8.660;2023-08-06T00:08:45;17.40;99.90
4910;DHT22;2470;49.868;8.660;2023-08-06T00:11:11;17.40;99.90
4910;DHT22;2470;49.868;8.660;2023-08-06T00:13:38;17.30;99.90
4910;DHT22;2470;49.868;8.660;2023-08-06T00:16:13;17.30;99.90
4910;DHT22;2470;49.868;8.660;2023-08-06T00:18:39;17.30;99.90
4910;DHT22;2470;49.868;8.660;2023-08-06T00:21:05;17.30;99.90
4910;DHT22;2470;49.868;8.660;2023-08-06T00:23:31;17.40;99.90
4910;DHT22;2470;49.868;8.660;2023-08-06T00:25:56;17.40;99.90
4910;DHT22;2470;49.868;8.660;2023-08-06T00:28:22;17.40;99.90
4910;DHT22;2470;49.868;8.660;2023-08-06T00:30:53;17.40;99.90
4910;DHT22;2470;49.868;8.660;2023-08-06T00:33:19;17.40;99.90
4910;DHT22;2470;49.868;8.660;2023-08-06T00:35:44;17.50;99.90
4910;DHT22;2470;49.868;8.660;2023-08-06T00:38:10;17.50;99.90
4910;DHT22;2470;49.868;8.660;2023-08-06T00:40:35;17.50;99.90
4910;DHT22;2470;49.868;8.660;2023-08-06T00:43:01;17.50;99.90
4910;DHT22;2470;49.868;8.660;2023-08-06T00:45:28;17.50;99.90
4910;DHT22;2470;49.868;8.660;2023-08-06T00:47:55;17.50;99.90
4910;DHT22;2470;49.868;8.660;2023-08-06T00:50:21;17.50;99.90
4910;DHT22;2470;49.868;8.660;2023-08-06T00:52:48;17.40;99.90
4910;DHT22;2470;49.868;8.660;2023-08-06T00:55:15;17.50;99.90
4910;DHT22;2470;49.868;8.660;2023-08-06T00:57:41;17.50;99.90
4910;DHT22;2470;49.868;8.660;2023-08-06T01:00:07;17.50;99.90
4910;DHT22;2470;49.868;8.660;2023-08-06T01:02:33;17.50;99.90
4910;DHT22;2470;49.868;8.660;2023-08-06T01:04:58;17.50;99.90
4910;DHT22;2470;49.868;8.660;2023-08-06T01:07:50;17.50;99.90
4910;DHT22;2470;49.868;8.660;2023-08-06T01:15:50;17.50;99.90
4910;DHT22;2470;49.868;8.660;2023-08-06T01:18:20;17.60;99.90
4910;DHT22;2470;49.868;8.660;2023-08-06T01:20:45;17.60;99.90
4910;DHT22;2470;49.868;8.660;2023-08-06T01:23:11;17.60;99.90
4910;DHT22;2470;49.868;8.660;2023-08-06T01:25:45;17.60;99.90
4910;DHT22;2470;49.868;8.660;2023-08-06T01:28:22;17.60;99.90
4910;DHT22;2470;49.868;8.660;2023-08-06T01:30:49;17.60;99.90
4910;DHT22;2470;49.868;8.660;2023-08-06T01:33:19;17.60;99.90
4910;DHT22;2470;49.868;8.660;2023-08-06T01:35:48;17.70;99.90
4910;DHT22;2470;49.868;8.660;2023-08-06T01:38:15;17.60;99.90
4910;DHT22;2470;49.868;8.660;2023-08-06T01:40:40;17.60;99.90
4910;DHT22;2470;49.868;8.660;2023-08-06T01:43:06;17.60;99.90
4910;DHT22;2470;49.868;8.660;2023-08-06T01:45:31;17.70;99.90
4910;DHT22;2470;49.868;8.660;2023-08-06T01:47:57;17.70;99.90
4910;DHT22;2470;49.868;8.660;2023-08-06T01:50:22;17.70;99.90
4910;DHT22;2470;49.868;8.660;2023-08-06T01:52:48;17.70;99.90
4910;DHT22;2470;49.868;8.660;2023-08-06T01:55:13;17.70;99.90
4910;DHT22;2470;49.868;8.660;2023-08-06T01:57:39;17.70;99.90
4910;DHT22;2470;49.868;8.660;2023-08-06T02:00:05;17.70;99.90
4910;DHT22;2470;49.868;8.660;2023-08-06T02:02:31;17.70;99.90
4910;DHT22;2470;49.868;8.660;2023-08-06T02:04:56;17.70;99.90
4910;DHT22;2470;49.868;8.660;2023-08-06T02:07:23;17.70;99.90
4910;DHT22;2470;49.868;8.660;2023-08-06T02:09:49;17.70;99.90
4910;DHT22;2470;49.868;8.660;2023-08-06T02:12:14;17.70;99.90
4910;DHT22;2470;49.868;8.660;2023-08-06T02:14:40;17.70;99.90
4910;DHT22;2470;49.868;8.660;2023-08-06T02:17:05;17.70;99.90
4910;DHT22;2470;49.868;8.660;2023-08-06T02:19:31;17.70;99.90
4910;DHT22;2470;49.868;8.660;2023-08-06T02:21:56;17.70;99.90
4910;DHT22;2470;49.868;8.660;2023-08-06T02:24:22;17.70;99.90
4910;DHT22;2470;49.868;8.660;2023-08-06T02:26:47;17.80;99.90
4910;DHT22;2470;49.868;8.660;2023-08-06T02:29:16;17.80;99.90
4910;DHT22;2470;49.868;8.660;2023-08-06T02:31:42;17.80;99.90
4910;DHT22;2470;49.868;8.660;2023-08-06T02:34:07;17.80;99.90
4910;DHT22;2470;49.868;8.660;2023-08-06T02:36:33;17.80;99.90
4910;DHT22;2470;49.868;8.660;2023-08-06T02:38:58;17.70;99.90
4910;DHT22;2470;49.868;8.660;2023-08-06T02:41:24;17.80;99.90
4910;DHT22;2470;49.868;8.660;2023-08-06T02:43:49;17.70;99.90
4910;DHT22;2470;49.868;8.660;2023-08-06T02:46:15;17.70;99.90
4910;DHT22;2470;49.868;8.660;2023-08-06T02:48:40;17.70;99.90
4910;DHT22;2470;49.868;8.660;2023-08-06T02:51:06;17.70;99.90
4910;DHT22;2470;49.868;8.660;2023-08-06T02:53:31;17.60;99.90
4910;DHT22;2470;49.868;8.660;2023-08-06T02:55:57;17.60;99.90
4910;DHT22;2470;49.868;8.660;2023-08-06T02:58:22;17.50;99.90
4910;DHT22;2470;49.868;8.660;2023-08-06T03:01:02;17.50;99.90
4910;DHT22;2470;49.868;8.660;2023-08-06T03:03:32;17.50;99.90
4910;DHT22;2470;49.868;8.660;2023-08-06T03:05:58;17.50;99.90
4910;DHT22;2470;49.868;8.660;2023-08-06T03:08:24;17.50;99.90
4910;DHT22;2470;49.868;8.660;2023-08-06T03:10:50;17.50;99.90
4910;DHT22;2470;49.868;8.660;2023-08-06T03:13:19;17.50;99.90
4910;DHT22;2470;49.868;8.660;2023-08-06T03:15:58;17.50;99.90
4910;DHT22;2470;49.868;8.660;2023-08-06T03:18:24;17.50;99.90
4910;DHT22;2470;49.868;8.660;2023-08-06T03:20:51;17.50;99.90
4910;DHT22;2470;49.868;8.660;2023-08-06T03:23:17;17.40;99.90
4910;DHT22;2470;49.868;8.660;2023-08-06T03:25:43;17.40;99.90
4910;DHT22;2470;49.868;8.660;2023-08-06T03:28:09;17.30;99.90
4910;DHT22;2470;49.868;8.660;2023-08-06T03:30:34;17.30;99.90
4910;DHT22;2470;49.868;8.660;2023-08-06T03:33:00;17.20;99.90
4910;DHT22;2470;49.868;8.660;2023-08-06T03:35:25;17.20;99.90
4910;DHT22;2470;49.868;8.660;2023-08-06T03:37:51;17.20;99.90
4910;DHT22;2470;49.868;8.660;2023-08-06T03:40:16;17.30;99.90
4910;DHT22;2470;49.868;8.660;2023-08-06T03:42:42;17.20;99.90
4910;DHT22;2470;49.868;8.660;2023-08-06T03:45:08;17.20;99.90
4910;DHT22;2470;49.868;8.660;2023-08-06T03:47:34;17.20;99.90
4910;DHT22;2470;49.868;8.660;2023-08-06T03:49:59;17.20;99.90
4910;DHT22;2470;49.868;8.660;2023-08-06T03:52:25;17.20;99.90
4910;DHT22;2470;49.868;8.660;2023-08-06T03:54:50;17.10;99.90
4910;DHT22;2470;49.868;8.660;2023-08-06T03:57:16;17.20;99.90
4910;DHT22;2470;49.868;8.660;2023-08-06T03:59:41;17.10;99.90
4910;DHT22;2470;49.868;8.660;2023-08-06T04:02:07;17.10;99.90
4910;DHT22;2470;49.868;8.660;2023-08-06T04:04:32;17.10;99.90
4910;DHT22;2470;49.868;8.660;2023-08-06T04:06:58;17.10;99.90
4910;DHT22;2470;49.868;8.660;2023-08-06T04:09:23;17.10;99.90
4910;DHT22;2470;49.868;8.660;2023-08-06T04:11:49;17.10;99.90
4910;DHT22;2470;49.868;8.660;2023-08-06T04:14:14;17.00;99.90
4910;DHT22;2470;49.868;8.660;2023-08-06T04:16:40;17.00;99.90
4910;DHT22;2470;49.868;8.660;2023-08-06T04:19:05;16.90;99.90
4910;DHT22;2470;49.868;8.660;2023-08-06T04:21:30;16.90;99.90
4910;DHT22;2470;49.868;8.660;2023-08-06T04:23:56;16.90;99.90
4910;DHT22;2470;49.868;8.660;2023-08-06T04:26:22;16.80;99.90
4910;DHT22;2470;49.868;8.660;2023-08-06T04:28:48;16.70;99.90
4910;DHT22;2470;49.868;8.660;2023-08-06T04:31:14;16.60;99.90
4910;DHT22;2470;49.868;8.660;2023-08-06T04:33:40;16.60;99.90
4910;DHT22;2470;49.868;8.660;2023-08-06T04:36:05;16.70;99.90
4910;DHT22;2470;49.868;8.660;2023-08-06T04:38:31;16.70;99.90
4910;DHT22;2470;49.868;8.660;2023-08-06T04:40:57;16.80;99.90
4910;DHT22;2470;49.868;8.660;2023-08-06T04:43:22;16.90;99.90
4910;DHT22;2470;49.868;8.660;2023-08-06T04:45:54;16.90;99.90
4910;DHT22;2470;49.868;8.660;2023-08-06T04:48:20;16.90;99.90
4910;DHT22;2470;49.868;8.660;2023-08-06T04:50:46;16.80;99.90
4910;DHT22;2470;49.868;8.660;2023-08-06T04:53:13;16.70;99.90
4910;DHT22;2470;49.868;8.660;2023-08-06T04:55:38;16.70;99.90
4910;DHT22;2470;49.868;8.660;2023-08-06T04:58:04;16.70;99.90
4910;DHT22;2470;49.868;8.660;2023-08-06T05:00:30;16.70;99.90
4910;DHT22;2470;49.868;8.660;2023-08-06T05:02:55;16.60;99.90
4910;DHT22;2470;49.868;8.660;2023-08-06T05:05:21;16.60;99.90
4910;DHT22;2470;49.868;8.660;2023-08-06T05:07:48;16.60;99.90
4910;DHT22;2470;49.868;8.660;2023-08-06T05:10:14;16.60;99.90
4910;DHT22;2470;49.868;8.660;2023-08-06T05:12:40;16.50;99.90
4910;DHT22;2470;49.868;8.660;2023-08-06T05:15:06;16.50;99.90
4910;DHT22;2470;49.868;8.660;2023-08-06T05:17:32;16.50;99.90
4910;DHT22;2470;49.868;8.660;2023-08-06T05:19:57;16.40;99.90
4910;DHT22;2470;49.868;8.660;2023-08-06T05:22:23;16.30;99.90
4910;DHT22;2470;49.868;8.660;2023-08-06T05:24:48;16.30;99.90
4910;DHT22;2470;49.868;8.660;2023-08-06T05:27:14;16.30;99.90
4910;DHT22;2470;49.868;8.660;2023-08-06T05:29:39;16.40;99.90
4910;DHT22;2470;49.868;8.660;2023-08-06T05:32:05;16.40;99.90
4910;DHT22;2470;49.868;8.660;2023-08-06T05:34:31;16.40;99.90
4910;DHT22;2470;49.868;8.660;2023-08-06T05:36:56;16.40;99.90
4910;DHT22;2470;49.868;8.660;2023-08-06T05:39:22;16.40;99.90
4910;DHT22;2470;49.868;8.660;2023-08-06T05:41:47;16.40;99.90
4910;DHT22;2470;49.868;8.660;2023-08-06T05:44:13;16.40;99.90
4910;DHT22;2470;49.868;8.660;2023-08-06T05:46:38;16.30;99.90
4910;DHT22;2470;49.868;8.660;2023-08-06T05:49:04;16.40;99.90
4910;DHT22;2470;49.868;8.660;2023-08-06T05:51:30;16.40;99.90
4910;DHT22;2470;49.868;8.660;2023-08-06T05:53:56;16.40;99.90
4910;DHT22;2470;49.868;8.660;2023-08-06T05:56:21;16.50;99.90
4910;DHT22;2470;49.868;8.660;2023-08-06T05:58:47;16.50;99.90
4910;DHT22;2470;49.868;8.660;2023-08-06T06:01:13;16.40;99.90
4910;DHT22;2470;49.868;8.660;2023-08-06T06:03:38;16.40;99.90
4910;DHT22;2470;49.868;8.660;2023-08-06T06:06:04;16.30;99.90
4910;DHT22;2470;49.868;8.660;2023-08-06T06:08:29;16.30;99.90
4910;DHT22;2470;49.868;8.660;2023-08-06T06:10:55;16.40;99.90
4910;DHT22;2470;49.868;8.660;2023-08-06T06:13:20;16.30;99.90
4910;DHT22;2470;49.868;8.660;2023-08-06T06:15:46;16.40;99.90
4910;DHT22;2470;49.868;8.660;2023-08-06T06:18:13;16.40;99.90
4910;DHT22;2470;49.868;8.660;2023-08-06T06:20:38;16.40;99.90
4910;DHT22;2470;49.868;8.660;2023-08-06T06:23:04;16.40;99.90
4910;DHT22;2470;49.868;8.660;2023-08-06T06:25:29;16.40;99.90
4910;DHT22;2470;49.868;8.660;2023-08-06T06:27:55;16.40;99.90
4910;DHT22;2470;49.868;8.660;2023-08-06T06:30:20;16.40;99.90
4910;DHT22;2470;49.868;8.660;2023-08-06T06:32:46;16.50;99.90
4910;DHT22;2470;49.868;8.660;2023-08-06T06:35:12;16.40;99.90
4910;DHT22;2470;49.868;8.660;2023-08-06T06:37:38;16.40;99.90
4910;DHT22;2470;49.868;8.660;2023-08-06T06:40:04;16.40;99.90
4910;DHT22;2470;49.868;8.660;2023-08-06T06:42:30;16.40;99.90
4910;DHT22;2470;49.868;8.660;2023-08-06T06:44:55;16.30;99.90
4910;DHT22;2470;49.868;8.660;2023-08-06T06:47:20;16.40;99.90
4910;DHT22;2470;49.868;8.660;2023-08-06T06:49:46;16.40;99.90
4910;DHT22;2470;49.868;8.660;2023-08-06T06:52:11;16.30;99.90
4910;DHT22;2470;49.868;8.660;2023-08-06T06:54:37;16.30;99.90
4910;DHT22;2470;49.868;8.660;2023-08-06T06:57:03;16.30;99.90
4910;DHT22;2470;49.868;8.660;2023-08-06T06:59:28;16.30;99.90
4910;DHT22;2470;49.868;8.660;2023-08-06T07:01:54;16.30;99.90
4910;DHT22;2470;49.868;8.660;2023-08-06T07:04:19;16.30;99.90
4910;DHT22;2470;49.868;8.660;2023-08-06T07:06:45;16.40;99.90
4910;DHT22;2470;49.868;8.660;2023-08-06T07:09:10;16.40;99.90
4910;DHT22;2470;49.868;8.660;2023-08-06T07:11:36;16.50;99.90
4910;DHT22;2470;49.868;8.660;2023-08-06T07:14:01;16.40;99.90
4910;DHT22;2470;49.868;8.660;2023-08-06T07:16:27;16.40;99.90
4910;DHT22;2470;49.868;8.660;2023-08-06T07:18:53;16.60;99.90
4910;DHT22;2470;49.868;8.660;2023-08-06T07:21:19;16.60;99.90
4910;DHT22;2470;49.868;8.660;2023-08-06T07:23:45;16.60;99.90
4910;DHT22;2470;49.868;8.660;2023-08-06T07:26:11;16.60;99.90
4910;DHT22;2470;49.868;8.660;2023-08-06T07:28:37;16.60;99.90
4910;DHT22;2470;49.868;8.660;2023-08-06T07:31:03;16.60;99.90
4910;DHT22;2470;49.868;8.660;2023-08-06T07:33:29;16.60;99.90
4910;DHT22;2470;49.868;8.660;2023-08-06T07:35:54;16.50;99.90
4910;DHT22;2470;49.868;8.660;2023-08-06T07:38:20;16.50;99.90
4910;DHT22;2470;49.868;8.660;2023-08-06T07:40:46;16.50;99.90
4910;DHT22;2470;49.868;8.660;2023-08-06T07:43:12;16.50;99.90
4910;DHT22;2470;49.868;8.660;2023-08-06T07:45:37;16.50;99.90
4910;DHT22;2470;49.868;8.660;2023-08-06T07:48:03;16.50;99.90
4910;DHT22;2470;49.868;8.660;2023-08-06T07:50:29;16.50;99.90
4910;DHT22;2470;49.868;8.660;2023-08-06T07:52:55;16.60;99.90
4910;DHT22;2470;49.868;8.660;2023-08-06T07:55:20;16.60;99.90
4910;DHT22;2470;49.868;8.660;2023-08-06T07:57:46;16.60;99.90
4910;DHT22;2470;49.868;8.660;2023-08-06T08:00:11;16.60;99.90
4910;DHT22;2470;49.868;8.660;2023-08-06T08:02:37;16.50;99.90
4910;DHT22;2470;49.868;8.660;2023-08-06T08:05:02;16.50;99.90
4910;DHT22;2470;49.868;8.660;2023-08-06T08:07:28;16.30;99.90
4910;DHT22;2470;49.868;8.660;2023-08-06T08:09:56;16.30;99.90
4910;DHT22;2470;49.868;8.660;2023-08-06T08:12:22;16.30;99.90
4910;DHT22;2470;49.868;8.660;2023-08-06T08:14:47;16.40;99.90
4910;DHT22;2470;49.868;8.660;2023-08-06T08:17:13;16.30;99.90
4910;DHT22;2470;49.868;8.660;2023-08-06T08:19:39;16.40;99.90
4910;DHT22;2470;49.868;8.660;2023-08-06T08:22:05;16.40;99.90
4910;DHT22;2470;49.868;8.660;2023-08-06T08:24:30;16.50;99.90
4910;DHT22;2470;49.868;8.660;2023-08-06T08:26:56;16.50;99.90
4910;DHT22;2470;49.868;8.660;2023-08-06T08:29:22;16.60;99.90
4910;DHT22;2470;49.868;8.660;2023-08-06T08:31:49;16.70;99.90
4910;DHT22;2470;49.868;8.660;2023-08-06T08:34:16;16.70;99.90
4910;DHT22;2470;49.868;8.660;2023-08-06T08:36:42;16.90;99.90
4910;DHT22;2470;49.868;8.660;2023-08-06T08:39:08;17.00;99.90
4910;DHT22;2470;49.868;8.660;2023-08-06T08:41:35;17.20;99.90
4910;DHT22;2470;49.868;8.660;2023-08-06T08:44:01;17.40;99.90
4910;DHT22;2470;49.868;8.660;2023-08-06T08:46:27;17.50;99.90
4910;DHT22;2470;49.868;8.660;2023-08-06T08:48:54;17.50;99.90
4910;DHT22;2470;49.868;8.660;2023-08-06T08:51:21;17.50;99.90
4910;DHT22;2470;49.868;8.660;2023-08-06T08:53:47;17.50;99.90
4910;DHT22;2470;49.868;8.660;2023-08-06T08:56:14;17.50;99.90
4910;DHT22;2470;49.868;8.660;2023-08-06T08:58:40;17.60;99.90
4910;DHT22;2470;49.868;8.660;2023-08-06T09:01:06;17.80;99.90
4910;DHT22;2470;49.868;8.660;2023-08-06T09:03:32;17.80;99.90
4910;DHT22;2470;49.868;8.660;2023-08-06T09:05:59;17.70;99.90
4910;DHT22;2470;49.868;8.660;2023-08-06T09:08:33;17.80;99.90
4910;DHT22;2470;49.868;8.660;2023-08-06T09:11:00;18.10;99.90
4910;DHT22;2470;49.868;8.660;2023-08-06T09:13:26;18.20;99.90
4910;DHT22;2470;49.868;8.660;2023-08-06T09:15:52;18.30;99.90
4910;DHT22;2470;49.868;8.660;2023-08-06T09:18:26;18.20;99.90
4910;DHT22;2470;49.868;8.660;2023-08-06T09:20:53;18.10;99.90
4910;DHT22;2470;49.868;8.660;2023-08-06T09:23:18;18.20;99.90
4910;DHT22;2470;49.868;8.660;2023-08-06T09:25:45;18.20;99.90
4910;DHT22;2470;49.868;8.660;2023-08-06T09:28:11;18.30;99.90
4910;DHT22;2470;49.868;8.660;2023-08-06T09:30:37;18.40;99.90
4910;DHT22;2470;49.868;8.660;2023-08-06T09:33:03;18.40;99.90
4910;DHT22;2470;49.868;8.660;2023-08-06T09:35:30;18.50;99.90
4910;DHT22;2470;49.868;8.660;2023-08-06T09:38:05;18.70;99.90
4910;DHT22;2470;49.868;8.660;2023-08-06T09:40:32;18.80;99.90
4910;DHT22;2470;49.868;8.660;2023-08-06T09:42:58;18.90;99.90
4910;DHT22;2470;49.868;8.660;2023-08-06T09:45:35;19.00;99.90
4910;DHT22;2470;49.868;8.660;2023-08-06T09:48:08;19.00;99.90
4910;DHT22;2470;49.868;8.660;2023-08-06T09:50:36;19.10;99.90
4910;DHT22;2470;49.868;8.660;2023-08-06T09:53:03;18.90;99.90
4910;DHT22;2470;49.868;8.660;2023-08-06T09:55:28;18.90;99.90
4910;DHT22;2470;49.868;8.660;2023-08-06T09:57:55;18.90;99.90
4910;DHT22;2470;49.868;8.660;2023-08-06T10:00:21;18.90;99.90
4910;DHT22;2470;49.868;8.660;2023-08-06T10:02:48;18.90;99.90
4910;DHT22;2470;49.868;8.660;2023-08-06T10:05:15;18.80;99.90
4910;DHT22;2470;49.868;8.660;2023-08-06T10:07:43;18.70;99.90
4910;DHT22;2470;49.868;8.660;2023-08-06T10:10:09;18.60;99.90
4910;DHT22;2470;49.868;8.660;2023-08-06T10:12:39;18.50;99.90
4910;DHT22;2470;49.868;8.660;2023-08-06T10:15:09;18.60;99.90
4910;DHT22;2470;49.868;8.660;2023-08-06T10:17:37;18.70;99.90
4910;DHT22;2470;49.868;8.660;2023-08-06T10:20:05;18.70;99.90
4910;DHT22;2470;49.868;8.660;2023-08-06T10:22:33;18.60;99.90
4910;DHT22;2470;49.868;8.660;2023-08-06T10:24:59;18.50;99.90
4910;DHT22;2470;49.868;8.660;2023-08-06T10:27:53;18.50;99.90
4910;DHT22;2470;49.868;8.660;2023-08-06T10:30:29;18.40;99.90
4910;DHT22;2470;49.868;8.660;2023-08-06T10:33:01;18.30;99.90
4910;DHT22;2470;49.868;8.660;2023-08-06T10:35:41;18.30;99.90
4910;DHT22;2470;49.868;8.660;2023-08-06T10:38:16;18.30;99.90
4910;DHT22;2470;49.868;8.660;2023-08-06T10:45:56;18.50;99.90
4910;DHT22;2470;49.868;8.660;2023-08-06T10:48:36;18.60;99.90
4910;DHT22;2470;49.868;8.660;2023-08-06T10:51:02;18.90;99.90
4910;DHT22;2470;49.868;8.660;2023-08-06T10:53:28;19.10;99.90
4910;DHT22;2470;49.868;8.660;2023-08-06T10:55:54;19.20;99.90
4910;DHT22;2470;49.868;8.660;2023-08-06T10:58:19;19.40;99.90
4910;DHT22;2470;49.868;8.660;2023-08-06T11:00:45;19.40;99.90
4910;DHT22;2470;49.868;8.660;2023-08-06T11:03:11;19.50;99.90
4910;DHT22;2470;49.868;8.660;2023-08-06T11:05:37;19.70;99.90
4910;DHT22;2470;49.868;8.660;2023-08-06T11:08:02;19.80;99.90
4910;DHT22;2470;49.868;8.660;2023-08-06T11:10:28;19.80;99.90
4910;DHT22;2470;49.868;8.660;2023-08-06T11:12:54;20.10;99.90
4910;DHT22;2470;49.868;8.660;2023-08-06T11:15:20;20.30;99.90
4910;DHT22;2470;49.868;8.660;2023-08-06T11:17:46;20.40;99.90
4910;DHT22;2470;49.868;8.660;2023-08-06T11:20:12;20.60;99.90
4910;DHT22;2470;49.868;8.660;2023-08-06T11:22:38;20.60;99.90
4910;DHT22;2470;49.868;8.660;2023-08-06T11:25:06;20.40;99.90
4910;DHT22;2470;49.868;8.660;2023-08-06T11:27:31;19.90;99.90
4910;DHT22;2470;49.868;8.660;2023-08-06T11:29:57;19.60;99.90
4910;DHT22;2470;49.868;8.660;2023-08-06T11:32:23;19.40;99.90
4910;DHT22;2470;49.868;8.660;2023-08-06T11:34:48;19.20;99.90
4910;DHT22;2470;49.868;8.660;2023-08-06T11:37:14;19.30;99.90
4910;DHT22;2470;49.868;8.660;2023-08-06T11:39:46;19.50;99.90
4910;DHT22;2470;49.868;8.660;2023-08-06T11:42:12;19.30;99.90
4910;DHT22;2470;49.868;8.660;2023-08-06T11:44:37;19.10;99.90
4910;DHT22;2470;49.868;8.660;2023-08-06T11:47:04;18.80;99.90
4910;DHT22;2470;49.868;8.660;2023-08-06T11:49:48;18.70;99.90
4910;DHT22;2470;49.868;8.660;2023-08-06T11:55:06;18.40;99.90
4910;DHT22;2470;49.868;8.660;2023-08-06T11:57:34;18.30;99.90
4910;DHT22;2470;49.868;8.660;2023-08-06T12:00:07;18.30;99.90
4910;DHT22;2470;49.868;8.660;2023-08-06T12:02:34;18.20;99.90
4910;DHT22;2470;49.868;8.660;2023-08-06T12:05:11;18.10;99.90
4910;DHT22;2470;49.868;8.660;2023-08-06T12:07:38;18.10;99.90
4910;DHT22;2470;49.868;8.660;2023-08-06T12:10:04;18.00;99.90
4910;DHT22;2470;49.868;8.660;2023-08-06T12:12:30;18.10;99.90
4910;DHT22;2470;49.868;8.660;2023-08-06T12:14:56;18.20;99.90
4910;DHT22;2470;49.868;8.660;2023-08-06T12:17:25;18.20;99.90
4910;DHT22;2470;49.868;8.660;2023-08-06T12:19:50;18.20;99.90
4910;DHT22;2470;49.868;8.660;2023-08-06T12:22:16;18.20;99.90
4910;DHT22;2470;49.868;8.660;2023-08-06T12:24:43;18.20;99.90
4910;DHT22;2470;49.868;8.660;2023-08-06T12:27:09;18.20;99.90
4910;DHT22;2470;49.868;8.660;2023-08-06T12:29:35;18.20;99.90
4910;DHT22;2470;49.868;8.660;2023-08-06T12:32:00;18.20;99.90
4910;DHT22;2470;49.868;8.660;2023-08-06T12:34:26;18.20;99.90
4910;DHT22;2470;49.868;8.660;2023-08-06T12:36:52;18.10;99.90
4910;DHT22;2470;49.868;8.660;2023-08-06T12:39:18;18.00;99.90
4910;DHT22;2470;49.868;8.660;2023-08-06T12:41:43;18.00;99.90
4910;DHT22;2470;49.868;8.660;2023-08-06T12:44:11;18.00;99.90
4910;DHT22;2470;49.868;8.660;2023-08-06T12:46:37;18.00;99.90
4910;DHT22;2470;49.868;8.660;2023-08-06T12:49:02;17.90;99.90
4910;DHT22;2470;49.868;8.660;2023-08-06T12:51:28;17.90;99.90
4910;DHT22;2470;49.868;8.660;2023-08-06T12:53:53;17.70;99.90
4910;DHT22;2470;49.868;8.660;2023-08-06T12:56:19;17.70;99.90
4910;DHT22;2470;49.868;8.660;2023-08-06T12:58:44;17.70;99.90
4910;DHT22;2470;49.868;8.660;2023-08-06T13:01:10;17.80;99.90
4910;DHT22;2470;49.868;8.660;2023-08-06T13:03:35;17.70;99.90
4910;DHT22;2470;49.868;8.660;2023-08-06T13:06:01;17.60;99.90
4910;DHT22;2470;49.868;8.660;2023-08-06T13:08:26;17.60;99.90
4910;DHT22;2470;49.868;8.660;2023-08-06T13:10:52;17.60;99.90
4910;DHT22;2470;49.868;8.660;2023-08-06T13:13:18;17.50;99.90
4910;DHT22;2470;49.868;8.660;2023-08-06T13:15:43;17.50;99.90
4910;DHT22;2470;49.868;8.660;2023-08-06T13:18:09;17.60;99.90
4910;DHT22;2470;49.868;8.660;2023-08-06T13:20:38;17.60;99.90
4910;DHT22;2470;49.868;8.660;2023-08-06T13:23:07;17.80;99.90
4910;DHT22;2470;49.868;8.660;2023-08-06T13:25:32;17.80;99.90
4910;DHT22;2470;49.868;8.660;2023-08-06T13:28:02;17.80;99.90
4910;DHT22;2470;49.868;8.660;2023-08-06T13:30:28;17.70;99.90
4910;DHT22;2470;49.868;8.660;2023-08-06T13:32:53;17.70;99.90
4910;DHT22;2470;49.868;8.660;2023-08-06T13:35:21;17.70;99.90
4910;DHT22;2470;49.868;8.660;2023-08-06T13:37:46;17.60;99.90
4910;DHT22;2470;49.868;8.660;2023-08-06T13:40:13;17.70;99.90
4910;DHT22;2470;49.868;8.660;2023-08-06T13:42:39;17.70;99.90
4910;DHT22;2470;49.868;8.660;2023-08-06T13:45:06;17.80;99.90
4910;DHT22;2470;49.868;8.660;2023-08-06T13:47:31;17.70;99.90
4910;DHT22;2470;49.868;8.660;2023-08-06T13:49:57;17.70;99.90
4910;DHT22;2470;49.868;8.660;2023-08-06T13:52:25;17.60;99.90
4910;DHT22;2470;49.868;8.660;2023-08-06T13:54:51;17.50;99.90
4910;DHT22;2470;49.868;8.660;2023-08-06T13:57:16;17.50;99.90
4910;DHT22;2470;49.868;8.660;2023-08-06T13:59:42;17.50;99.90
4910;DHT22;2470;49.868;8.660;2023-08-06T14:02:09;17.50;99.90
4910;DHT22;2470;49.868;8.660;2023-08-06T14:04:35;17.50;99.90
4910;DHT22;2470;49.868;8.660;2023-08-06T14:07:01;17.50;99.90
4910;DHT22;2470;49.868;8.660;2023-08-06T14:09:26;17.50;99.90
4910;DHT22;2470;49.868;8.660;2023-08-06T14:11:52;17.40;99.90
4910;DHT22;2470;49.868;8.660;2023-08-06T14:14:17;17.50;99.90
4910;DHT22;2470;49.868;8.660;2023-08-06T14:16:43;17.50;99.90
4910;DHT22;2470;49.868;8.660;2023-08-06T14:19:08;17.50;99.90
4910;DHT22;2470;49.868;8.660;2023-08-06T14:21:34;17.60;99.90
4910;DHT22;2470;49.868;8.660;2023-08-06T14:23:59;17.60;99.90
4910;DHT22;2470;49.868;8.660;2023-08-06T14:26:25;17.60;99.90
4910;DHT22;2470;49.868;8.660;2023-08-06T14:28:50;17.60;99.90
4910;DHT22;2470;49.868;8.660;2023-08-06T14:31:19;17.50;99.90
4910;DHT22;2470;49.868;8.660;2023-08-06T14:33:45;17.50;99.90
4910;DHT22;2470;49.868;8.660;2023-08-06T14:36:11;17.50;99.90
4910;DHT22;2470;49.868;8.660;2023-08-06T14:38:36;17.50;99.90
4910;DHT22;2470;49.868;8.660;2023-08-06T14:41:02;17.50;99.90
4910;DHT22;2470;49.868;8.660;2023-08-06T14:43:27;17.50;99.90
4910;DHT22;2470;49.868;8.660;2023-08-06T14:45:53;17.60;99.90
4910;DHT22;2470;49.868;8.660;2023-08-06T14:48:18;17.60;99.90
4910;DHT22;2470;49.868;8.660;2023-08-06T14:50:44;17.60;99.90
4910;DHT22;2470;49.868;8.660;2023-08-06T14:53:09;17.60;99.90
4910;DHT22;2470;49.868;8.660;2023-08-06T14:55:37;17.60;99.90
4910;DHT22;2470;49.868;8.660;2023-08-06T14:58:02;17.60;99.90
4910;DHT22;2470;49.868;8.660;2023-08-06T15:00:28;17.60;99.90
4910;DHT22;2470;49.868;8.660;2023-08-06T15:02:54;17.50;99.90
4910;DHT22;2470;49.868;8.660;2023-08-06T15:05:19;17.50;99.90
4910;DHT22;2470;49.868;8.660;2023-08-06T15:07:45;17.50;99.90
4910;DHT22;2470;49.868;8.660;2023-08-06T15:10:10;17.40;99.90
4910;DHT22;2470;49.868;8.660;2023-08-06T15:12:36;17.40;99.90
4910;DHT22;2470;49.868;8.660;2023-08-06T15:15:02;17.40;99.90
4910;DHT22;2470;49.868;8.660;2023-08-06T15:17:27;17.40;99.90
4910;DHT22;2470;49.868;8.660;2023-08-06T15:19:56;17.20;99.90
4910;DHT22;2470;49.868;8.660;2023-08-06T15:22:23;17.20;99.90
4910;DHT22;2470;49.868;8.660;2023-08-06T15:24:48;17.20;99.90
4910;DHT22;2470;49.868;8.660;2023-08-06T15:27:14;17.20;99.90
4910;DHT22;2470;49.868;8.660;2023-08-06T15:29:39;17.20;99.90
4910;DHT22;2470;49.868;8.660;2023-08-06T15:32:05;17.20;99.90
4910;DHT22;2470;49.868;8.660;2023-08-06T15:34:31;17.30;99.90
4910;DHT22;2470;49.868;8.660;2023-08-06T15:36:56;17.30;99.90
4910;DHT22;2470;49.868;8.660;2023-08-06T15:39:22;17.40;99.90
4910;DHT22;2470;49.868;8.660;2023-08-06T15:41:47;17.40;99.90
4910;DHT22;2470;49.868;8.660;2023-08-06T15:44:13;17.40;99.90
4910;DHT22;2470;49.868;8.660;2023-08-06T15:46:38;17.40;99.90
4910;DHT22;2470;49.868;8.660;2023-08-06T15:49:04;17.30;99.90
4910;DHT22;2470;49.868;8.660;2023-08-06T15:51:30;17.20;99.90
4910;DHT22;2470;49.868;8.660;2023-08-06T15:53:56;17.20;99.90
4910;DHT22;2470;49.868;8.660;2023-08-06T15:56:21;17.10;99.90
4910;DHT22;2470;49.868;8.660;2023-08-06T15:58:47;17.00;99.90
4910;DHT22;2470;49.868;8.660;2023-08-06T16:01:12;17.00;99.90
4910;DHT22;2470;49.868;8.660;2023-08-06T16:03:39;17.00;99.90
4910;DHT22;2470;49.868;8.660;2023-08-06T16:06:10;16.90;99.90
4910;DHT22;2470;49.868;8.660;2023-08-06T16:08:36;16.90;99.90
4910;DHT22;2470;49.868;8.660;2023-08-06T16:11:02;16.90;99.90